createdAt,value
2018-03-22T00:01:17.306Z,24.10
2018-03-22T00:03:45.848Z,23.65
2018-03-22T00:06:13.347Z,22.25
2018-03-22T00:08:40.880Z,23.27
2018-03-22T00:11:09.163Z,22.83
2018-03-22T00:13:37.461Z,21.85
2018-03-22T00:16:04.956Z,21.83
2018-03-22T00:18:32.512Z,22.40
2018-03-22T00:21:00.011Z,21.80
2018-03-22T00:23:28.299Z,21.05
2018-03-22T00:25:55.817Z,21.95
2018-03-22T00:28:23.345Z,22.55
2018-03-22T00:30:50.922Z,22.70
2018-03-22T00:33:18.533Z,22.15
2018-03-22T00:35:46.815Z,21.83
2018-03-22T00:38:14.369Z,20.62
2018-03-22T00:40:42.627Z,22.48
2018-03-22T00:43:10.912Z,21.20
2018-03-22T00:45:38.532Z,23.62
2018-03-22T00:48:06.040Z,22.70
2018-03-22T00:50:33.536Z,23.25
2018-03-22T00:53:01.110Z,22.17
2018-03-22T00:55:28.632Z,21.33
2018-03-22T00:57:56.218Z,22.90
2018-03-22T01:00:23.735Z,23.15
2018-03-22T01:02:51.255Z,23.65
2018-03-22T01:05:18.748Z,21.05
2018-03-22T01:07:46.260Z,20.45
2018-03-22T01:10:13.756Z,22.20
2018-03-22T01:12:42.047Z,20.75
2018-03-22T01:15:09.567Z,21.90
2018-03-22T01:17:37.178Z,21.02
2018-03-22T01:20:04.678Z,21.15
2018-03-22T01:22:32.213Z,22.42
2018-03-22T01:24:59.787Z,21.60
2018-03-22T01:27:27.316Z,22.10
2018-03-22T01:29:54.830Z,21.42
2018-03-22T01:32:23.114Z,21.83
2018-03-22T01:34:51.356Z,22.20
2018-03-22T01:37:18.964Z,22.40
2018-03-22T01:39:47.252Z,23.25
2018-03-22T01:42:14.798Z,22.87
2018-03-22T01:44:43.069Z,21.87
2018-03-22T01:47:11.512Z,22.65
2018-03-22T01:49:39.004Z,22.83
2018-03-22T01:52:07.336Z,22.00
2018-03-22T01:54:34.876Z,20.65
2018-03-22T01:57:02.368Z,23.33
2018-03-22T01:59:29.927Z,21.17
2018-03-22T02:01:57.436Z,21.48
2018-03-22T02:04:24.974Z,22.13
2018-03-22T02:06:53.239Z,24.15
2018-03-22T02:09:20.823Z,22.20
2018-03-22T02:11:48.380Z,22.52
2018-03-22T02:14:15.940Z,20.75
2018-03-22T02:16:43.434Z,20.40
2018-03-22T02:19:10.965Z,24.10
2018-03-22T02:21:38.455Z,22.42
2018-03-22T02:24:05.975Z,23.62
2018-03-22T02:26:33.482Z,22.35
2018-03-22T02:29:01.010Z,21.95
2018-03-22T02:31:28.514Z,23.27
2018-03-22T02:33:56.111Z,21.73
2018-03-22T02:36:25.246Z,23.17
2018-03-22T02:38:53.570Z,22.08
2018-03-22T02:41:21.833Z,22.40
2018-03-22T02:43:49.364Z,24.37
2018-03-22T02:46:16.881Z,24.00
2018-03-22T02:48:44.488Z,24.42
2018-03-22T02:51:11.988Z,24.10
2018-03-22T02:53:39.481Z,22.30
2018-03-22T02:56:06.969Z,24.35
2018-03-22T02:58:34.496Z,22.15
2018-03-22T03:01:02.040Z,22.65
2018-03-22T03:03:29.585Z,22.00
2018-03-22T03:05:57.846Z,24.37
2018-03-22T03:08:26.118Z,23.65
2018-03-22T03:10:54.377Z,24.73
2018-03-22T03:13:21.897Z,22.98
2018-03-22T03:15:49.383Z,23.55
2018-03-22T03:18:16.905Z,23.95
2018-03-22T03:20:44.424Z,23.87
2018-03-22T03:23:11.938Z,23.98
2018-03-22T03:25:39.444Z,23.60
2018-03-22T03:28:06.979Z,23.12
2018-03-22T03:30:34.482Z,23.17
2018-03-22T03:33:02.134Z,22.33
2018-03-22T03:35:30.392Z,23.33
2018-03-22T03:37:57.932Z,23.80
2018-03-22T03:40:25.429Z,21.00
2018-03-22T03:42:53.707Z,22.60
2018-03-22T03:45:22.114Z,21.95
2018-03-22T03:47:49.644Z,22.27
2018-03-22T03:50:17.960Z,22.83
2018-03-22T03:52:45.496Z,23.20
2018-03-22T03:55:12.991Z,23.25
2018-03-22T03:57:40.547Z,21.83
2018-03-22T04:00:08.028Z,23.52
2018-03-22T04:02:35.555Z,25.27
2018-03-22T04:05:03.059Z,22.83
2018-03-22T04:07:31.347Z,23.62
2018-03-22T04:09:59.609Z,24.15
2018-03-22T04:12:27.171Z,23.42
2018-03-22T04:14:55.440Z,23.33
2018-03-22T04:17:22.956Z,22.02
2018-03-22T04:19:50.473Z,24.48
2018-03-22T04:22:18.753Z,23.60
2018-03-22T04:24:47.031Z,23.67
2018-03-22T04:27:14.546Z,23.48
2018-03-22T04:29:42.097Z,23.27
2018-03-22T04:32:09.718Z,25.42
2018-03-22T04:34:37.963Z,24.58
2018-03-22T04:37:05.488Z,23.75
2018-03-22T04:39:32.994Z,23.27
2018-03-22T04:42:01.281Z,23.80
2018-03-22T04:44:29.538Z,24.15
2018-03-22T04:46:57.833Z,23.00
2018-03-22T04:49:26.150Z,23.90
2018-03-22T04:51:53.664Z,22.90
2018-03-22T04:54:21.192Z,25.15
2018-03-22T04:56:48.706Z,23.00
2018-03-22T04:59:16.246Z,25.23
2018-03-22T05:01:44.619Z,24.00
2018-03-22T05:04:12.997Z,23.77
2018-03-22T05:06:41.279Z,22.70
2018-03-22T05:09:09.667Z,25.83
2018-03-22T05:11:37.164Z,23.45
2018-03-22T05:14:04.687Z,25.98
2018-03-22T05:16:32.190Z,24.25
2018-03-22T05:18:59.737Z,24.55
2018-03-22T05:21:27.248Z,25.65
2018-03-22T05:23:55.528Z,24.05
2018-03-22T05:26:23.081Z,25.30
2018-03-22T05:28:51.399Z,24.52
2018-03-22T05:31:18.895Z,25.35
2018-03-22T05:33:46.517Z,28.55
2018-03-22T05:36:14.166Z,25.10
2018-03-22T05:38:41.901Z,24.50
2018-03-22T05:41:10.236Z,24.90
2018-03-22T05:43:37.855Z,24.10
2018-03-22T05:46:06.131Z,24.80
2018-03-22T05:48:33.757Z,24.83
2018-03-22T05:51:01.388Z,22.92
2018-03-22T05:53:28.896Z,23.12
2018-03-22T05:55:57.177Z,23.50
2018-03-22T05:58:25.466Z,23.70
2018-03-22T06:00:53.011Z,23.33
2018-03-22T06:03:21.287Z,22.52
2018-03-22T06:05:49.561Z,24.67
2018-03-22T06:08:17.126Z,24.37
2018-03-22T06:10:45.397Z,25.95
2018-03-22T06:13:12.980Z,28.15
2018-03-22T06:15:41.360Z,28.20
2018-03-22T06:18:08.888Z,24.65
2018-03-22T06:20:37.248Z,24.73
2018-03-22T06:23:04.829Z,27.23
2018-03-22T06:25:33.088Z,24.48
2018-03-22T06:28:01.471Z,25.92
2018-03-22T06:30:29.023Z,27.15
2018-03-22T06:32:56.555Z,26.48
2018-03-22T06:35:24.162Z,28.02
2018-03-22T06:38:02.347Z,25.70
2018-03-22T06:40:29.994Z,26.62
2018-03-22T06:42:57.522Z,25.48
2018-03-22T06:45:25.012Z,25.83
2018-03-22T06:47:52.612Z,24.80
2018-03-22T06:50:20.120Z,27.67
2018-03-22T06:52:47.763Z,28.92
2018-03-22T06:55:15.265Z,27.45
2018-03-22T06:57:42.794Z,28.80
2018-03-22T07:00:10.316Z,28.38
2018-03-22T07:02:37.850Z,28.00
2018-03-22T07:05:05.407Z,27.35
2018-03-22T07:07:33.730Z,26.80
2018-03-22T07:10:01.206Z,28.55
2018-03-22T07:12:29.858Z,28.52
2018-03-22T07:14:58.203Z,30.12
2018-03-22T07:17:26.494Z,26.77
2018-03-22T07:19:54.069Z,29.50
2018-03-22T07:22:21.600Z,29.67
2018-03-22T07:24:49.094Z,28.77
2018-03-22T07:27:16.683Z,32.80
2018-03-22T07:29:44.274Z,34.85
2018-03-22T07:32:11.851Z,37.17
2018-03-22T07:34:40.109Z,39.20
2018-03-22T07:37:08.393Z,37.50
2018-03-22T07:39:36.644Z,37.33
2018-03-22T07:42:04.176Z,38.92
2018-03-22T07:44:37.308Z,39.63
2018-03-22T07:47:04.829Z,37.08
2018-03-22T07:49:32.338Z,39.42
2018-03-22T07:51:59.905Z,37.30
2018-03-22T07:54:28.159Z,40.15
2018-03-22T07:56:55.822Z,37.75
2018-03-22T07:59:23.328Z,36.53
2018-03-22T08:01:50.862Z,35.50
2018-03-22T08:04:19.147Z,35.55
2018-03-22T08:06:46.727Z,34.80
2018-03-22T08:09:14.173Z,34.13
2018-03-22T08:11:41.712Z,36.95
2018-03-22T08:14:09.974Z,34.08
2018-03-22T08:16:37.659Z,33.75
2018-03-22T08:19:05.235Z,36.05
2018-03-22T08:21:32.747Z,36.03
2018-03-22T08:24:01.051Z,33.97
2018-03-22T08:26:29.442Z,31.60
2018-03-22T08:28:56.946Z,32.65
2018-03-22T08:31:24.530Z,31.37
2018-03-22T08:33:52.075Z,33.67
2018-03-22T08:36:19.686Z,31.35
2018-03-22T08:38:47.208Z,31.33
2018-03-22T08:41:15.511Z,29.67
2018-03-22T08:43:43.060Z,30.50
2018-03-22T08:46:10.599Z,29.02
2018-03-22T08:48:38.104Z,28.83
2018-03-22T08:51:05.616Z,29.65
2018-03-22T08:53:33.916Z,29.50
2018-03-22T08:56:01.510Z,29.15
2018-03-22T08:58:29.719Z,27.52
2018-03-22T09:00:57.261Z,25.27
2018-03-22T09:03:24.887Z,25.85
2018-03-22T09:05:52.448Z,25.23
2018-03-22T09:08:19.958Z,24.50
2018-03-22T09:10:47.532Z,23.65
2018-03-22T09:13:15.030Z,23.55
2018-03-22T09:15:42.543Z,21.77
2018-03-22T09:18:10.841Z,25.08
2018-03-22T09:20:38.418Z,23.38
2018-03-22T09:23:05.952Z,24.95
2018-03-22T09:25:34.244Z,22.35
2018-03-22T09:28:01.737Z,21.25
2018-03-22T09:30:29.331Z,24.12
2018-03-22T09:32:57.608Z,22.73
2018-03-22T09:35:26.012Z,21.35
2018-03-22T09:37:53.535Z,22.90
2018-03-22T09:40:21.070Z,23.87
2018-03-22T09:42:48.738Z,22.62
2018-03-22T09:45:16.582Z,24.40
2018-03-22T09:47:44.106Z,21.62
2018-03-22T09:50:12.460Z,21.40
2018-03-22T09:52:39.967Z,23.35
2018-03-22T09:55:07.515Z,22.35
2018-03-22T09:57:34.994Z,23.33
2018-03-22T10:00:02.628Z,21.25
2018-03-22T10:02:30.170Z,22.15
2018-03-22T10:04:58.568Z,22.83
2018-03-22T10:07:26.123Z,19.83
2018-03-22T10:09:53.651Z,17.17
2018-03-22T10:12:21.165Z,16.50
2018-03-22T10:14:48.698Z,18.80
2018-03-22T10:17:16.242Z,16.35
2018-03-22T10:19:43.723Z,16.73
2018-03-22T10:22:11.275Z,16.90
2018-03-22T10:24:38.774Z,16.27
2018-03-22T10:27:06.318Z,15.52
2018-03-22T10:29:33.819Z,15.98
2018-03-22T10:32:01.371Z,16.92
2018-03-22T10:34:28.871Z,15.98
2018-03-22T10:36:56.395Z,17.00
2018-03-22T10:39:24.057Z,16.48
2018-03-22T10:41:51.581Z,15.93
2018-03-22T10:44:19.077Z,14.77
2018-03-22T10:46:49.699Z,17.35
2018-03-22T10:49:17.187Z,14.70
2018-03-22T10:51:45.477Z,17.60
2018-03-22T10:54:13.027Z,15.07
2018-03-22T10:56:40.790Z,14.85
2018-03-22T10:59:09.060Z,14.90
2018-03-22T11:01:42.871Z,15.27
2018-03-22T11:04:11.236Z,15.63
2018-03-22T11:06:38.816Z,14.23
2018-03-22T11:09:06.320Z,14.95
2018-03-22T11:11:35.514Z,14.25
2018-03-22T11:14:04.095Z,14.68
2018-03-22T11:16:31.683Z,15.95
2018-03-22T11:18:59.164Z,14.82
2018-03-22T11:21:27.490Z,15.63
2018-03-22T11:23:55.103Z,15.63
2018-03-22T11:26:23.485Z,14.82
2018-03-22T11:28:51.073Z,13.93
2018-03-22T11:31:18.586Z,15.27
2018-03-22T11:33:46.176Z,14.87
2018-03-22T11:36:13.815Z,13.82
2018-03-22T11:38:42.114Z,15.27
2018-03-22T11:41:09.631Z,16.58
2018-03-22T11:43:37.140Z,16.25
2018-03-22T11:46:04.659Z,15.35
2018-03-22T11:48:32.192Z,16.35
2018-03-22T11:50:59.745Z,16.33
2018-03-22T11:53:27.287Z,17.85
2018-03-22T11:55:54.822Z,16.12
2018-03-22T11:58:22.452Z,16.85
2018-03-22T12:00:49.967Z,16.37
2018-03-22T12:03:17.493Z,17.70
2018-03-22T12:05:44.993Z,17.30
2018-03-22T12:08:12.551Z,17.10
2018-03-22T12:10:40.045Z,17.83
2018-03-22T12:13:07.577Z,18.33
2018-03-22T12:15:35.182Z,17.92
2018-03-22T12:18:03.463Z,17.92
2018-03-22T12:20:31.862Z,16.58
2018-03-22T12:22:59.342Z,18.50
2018-03-22T12:25:26.962Z,20.10
2018-03-22T12:27:55.352Z,19.37
2018-03-22T12:30:22.852Z,19.12
2018-03-22T12:32:50.369Z,19.98
2018-03-22T12:35:17.856Z,21.80
2018-03-22T12:37:45.345Z,20.42
2018-03-22T12:40:12.859Z,20.23
2018-03-22T12:42:40.405Z,18.55
2018-03-22T12:45:07.918Z,19.83
2018-03-22T12:47:35.440Z,18.73
2018-03-22T12:50:02.982Z,20.80
2018-03-22T12:52:31.329Z,22.20
2018-03-22T12:54:58.822Z,20.52
2018-03-22T12:57:26.341Z,21.83
2018-03-22T12:59:54.595Z,23.12
2018-03-22T13:02:22.117Z,22.52
2018-03-22T13:04:49.612Z,22.40
2018-03-22T13:07:17.143Z,22.02
2018-03-22T13:09:44.626Z,21.30
2018-03-22T13:12:12.147Z,21.20
2018-03-22T13:14:39.677Z,24.42
2018-03-22T13:17:07.996Z,23.10
2018-03-22T13:19:35.700Z,22.48
2018-03-22T13:22:04.002Z,22.90
2018-03-22T13:24:32.295Z,21.73
2018-03-22T13:26:59.837Z,22.75
2018-03-22T13:29:28.102Z,21.50
2018-03-22T13:31:56.392Z,23.75
2018-03-22T13:34:23.904Z,23.25
2018-03-22T13:36:51.464Z,22.75
2018-03-22T13:39:18.999Z,24.52
2018-03-22T13:41:46.515Z,25.50
2018-03-22T13:44:14.044Z,26.37
2018-03-22T13:46:42.744Z,25.75
2018-03-22T13:49:10.320Z,26.52
2018-03-22T13:51:38.652Z,27.13
2018-03-22T13:54:06.147Z,27.60
2018-03-22T13:56:34.448Z,25.25
2018-03-22T13:59:02.058Z,26.85
2018-03-22T14:01:29.583Z,27.08
2018-03-22T14:03:57.256Z,25.33
2018-03-22T14:06:24.827Z,25.67
2018-03-22T14:08:52.314Z,23.73
2018-03-22T14:11:19.884Z,24.85
2018-03-22T14:13:48.149Z,26.05
2018-03-22T14:16:15.676Z,22.33
2018-03-22T14:18:43.175Z,20.88
2018-03-22T14:21:11.473Z,22.48
2018-03-22T14:23:38.976Z,22.52
2018-03-22T14:26:06.567Z,20.02
2018-03-22T14:28:34.148Z,19.83
2018-03-22T14:31:02.422Z,20.70
2018-03-22T14:33:30.727Z,20.65
2018-03-22T14:35:58.754Z,19.98
2018-03-22T14:38:26.270Z,19.35
2018-03-22T14:40:53.772Z,19.27
2018-03-22T14:43:22.168Z,18.12
2018-03-22T14:45:50.467Z,18.85
2018-03-22T14:48:18.079Z,17.37
2018-03-22T14:50:45.572Z,17.33
2018-03-22T14:53:13.122Z,18.42
2018-03-22T14:55:41.380Z,18.70
2018-03-22T14:58:09.709Z,16.75
2018-03-22T15:00:37.232Z,20.20
2018-03-22T15:03:04.802Z,19.50
2018-03-22T15:05:32.304Z,18.77
2018-03-22T15:07:59.858Z,21.12
2018-03-22T15:10:27.434Z,20.58
2018-03-22T15:12:55.649Z,20.55
2018-03-22T15:15:23.147Z,20.52
2018-03-22T15:17:50.682Z,20.85
2018-03-22T15:20:18.222Z,20.45
2018-03-22T15:22:45.777Z,21.10
2018-03-22T15:25:14.039Z,20.52
2018-03-22T15:27:42.331Z,20.80
2018-03-22T15:30:09.901Z,23.85
2018-03-22T15:32:37.494Z,21.75
2018-03-22T15:35:05.018Z,21.23
2018-03-22T15:37:33.311Z,22.87
2018-03-22T15:40:00.920Z,24.08
2018-03-22T15:42:28.464Z,23.42
2018-03-22T15:44:56.024Z,22.55
2018-03-22T15:47:23.538Z,22.77
2018-03-22T15:49:51.199Z,22.00
2018-03-22T15:52:18.736Z,22.15
2018-03-22T15:54:47.031Z,21.45
2018-03-22T15:57:14.545Z,21.58
2018-03-22T15:59:42.155Z,21.48
2018-03-22T16:02:09.830Z,22.70
2018-03-22T16:04:37.488Z,21.55
2018-03-22T16:07:05.027Z,23.05
2018-03-22T16:09:33.327Z,22.48
2018-03-22T16:12:00.847Z,23.60
2018-03-22T16:14:29.136Z,23.87
2018-03-22T16:16:56.672Z,23.98
2018-03-22T16:19:25.097Z,23.17
2018-03-22T16:21:53.341Z,24.92
2018-03-22T16:24:21.631Z,25.08
2018-03-22T16:26:49.218Z,26.58
2018-03-22T16:29:16.726Z,27.95
2018-03-22T16:31:44.342Z,27.15
2018-03-22T16:34:11.862Z,26.90
2018-03-22T16:36:40.219Z,29.10
2018-03-22T16:39:07.735Z,28.77
2018-03-22T16:41:35.362Z,29.90
2018-03-22T16:44:03.456Z,27.17
2018-03-22T16:46:31.333Z,26.77
2018-03-22T16:48:58.851Z,26.45
2018-03-22T16:51:27.418Z,27.42
2018-03-22T16:53:55.869Z,29.83
2018-03-22T16:56:23.440Z,27.13
2018-03-22T16:58:51.036Z,26.95
2018-03-22T17:01:19.300Z,28.50
2018-03-22T17:03:47.016Z,26.20
2018-03-22T17:06:14.569Z,24.90
2018-03-22T17:08:42.111Z,24.90
2018-03-22T17:11:09.726Z,24.73
2018-03-22T17:13:37.399Z,24.52
2018-03-22T17:16:04.853Z,24.95
2018-03-22T17:18:32.440Z,23.85
2018-03-22T17:21:00.750Z,23.75
2018-03-22T17:23:28.499Z,25.02
2018-03-22T17:25:56.058Z,24.40
2018-03-22T17:28:23.584Z,25.45
2018-03-22T17:30:52.729Z,24.80
2018-03-22T17:33:20.278Z,25.12
2018-03-22T17:35:47.815Z,27.02
2018-03-22T17:38:16.132Z,25.90
2018-03-22T17:40:43.684Z,27.95
2018-03-22T17:43:11.444Z,28.15
2018-03-22T17:45:38.965Z,28.35
2018-03-22T17:48:06.541Z,27.23
2018-03-22T17:50:35.500Z,26.12
2018-03-22T17:53:03.042Z,26.20
2018-03-22T17:55:30.578Z,28.23
2018-03-22T17:57:58.147Z,28.67
2018-03-22T18:00:25.641Z,26.35
2018-03-22T18:02:53.191Z,27.33
2018-03-22T18:05:20.752Z,28.23
2018-03-22T18:07:48.352Z,27.70
2018-03-22T18:10:15.926Z,28.08
2018-03-22T18:12:43.444Z,28.50
2018-03-22T18:15:11.759Z,30.15
2018-03-22T18:17:39.321Z,28.87
2018-03-22T18:20:06.924Z,28.35
2018-03-22T18:22:34.436Z,27.90
2018-03-22T18:25:01.970Z,30.92
2018-03-22T18:27:30.364Z,27.48
2018-03-22T18:30:09.370Z,27.30
2018-03-22T18:32:38.188Z,29.73
2018-03-22T18:35:05.704Z,34.22
2018-03-22T18:37:33.305Z,29.52
2018-03-22T18:40:00.831Z,29.30
2018-03-22T18:42:29.198Z,33.22
2018-03-22T18:44:56.773Z,32.55
2018-03-22T18:47:25.066Z,32.45
2018-03-22T18:49:53.334Z,29.77
2018-03-22T18:52:21.619Z,32.33
2018-03-22T18:54:49.127Z,31.58
2018-03-22T18:57:16.653Z,35.10
2018-03-22T18:59:44.181Z,32.30
2018-03-22T19:02:12.647Z,37.83
2018-03-22T19:04:40.207Z,32.17
2018-03-22T19:07:07.890Z,33.58
2018-03-22T19:09:36.270Z,33.20
2018-03-22T19:12:03.841Z,32.63
2018-03-22T19:14:31.364Z,32.20
2018-03-22T19:16:58.896Z,34.28
2018-03-22T19:19:26.501Z,35.45
2018-03-22T19:21:54.767Z,34.63
2018-03-22T19:24:23.065Z,56.72
2018-03-22T19:27:01.517Z,42.90
2018-03-22T19:29:29.139Z,34.42
2018-03-22T19:31:57.655Z,36.20
2018-03-22T19:34:25.289Z,35.80
2018-03-22T19:36:53.104Z,36.03
2018-03-22T19:39:20.628Z,35.28
2018-03-22T19:41:48.628Z,37.17
2018-03-22T19:44:16.350Z,40.70
2018-03-22T19:46:43.917Z,40.97
2018-03-22T19:49:11.510Z,38.28
2018-03-22T19:51:39.088Z,37.08
2018-03-22T19:54:06.704Z,38.20
2018-03-22T19:56:35.716Z,39.45
2018-03-22T19:59:03.265Z,39.35
2018-03-22T20:01:31.073Z,38.42
2018-03-22T20:04:00.330Z,36.30
2018-03-22T20:06:29.950Z,38.45
2018-03-22T20:08:59.214Z,36.20
2018-03-22T20:11:26.772Z,42.60
2018-03-22T20:13:54.323Z,33.25
2018-03-22T20:16:21.831Z,35.05
2018-03-22T20:18:49.411Z,32.60
2018-03-22T20:21:17.814Z,35.85
2018-03-22T20:23:46.197Z,34.75
2018-03-22T20:26:13.912Z,36.42
2018-03-22T20:28:43.466Z,31.92
2018-03-22T20:31:11.761Z,33.45
2018-03-22T20:33:39.383Z,29.92
2018-03-22T20:36:06.915Z,29.67
2018-03-22T20:38:34.715Z,30.65
2018-03-22T20:41:04.984Z,31.15
2018-03-22T20:43:32.519Z,35.00
2018-03-22T20:46:00.066Z,33.65
2018-03-22T20:48:29.264Z,34.55
2018-03-22T20:50:56.785Z,35.95
2018-03-22T20:53:24.384Z,35.95
2018-03-22T20:55:52.777Z,35.13
2018-03-22T20:58:20.806Z,38.13
2018-03-22T21:00:48.379Z,40.35
2018-03-22T21:03:15.960Z,38.25
2018-03-22T21:05:43.540Z,38.95
2018-03-22T21:08:11.281Z,38.55
2018-03-22T21:10:38.809Z,41.13
2018-03-22T21:13:07.178Z,47.03
2018-03-22T21:15:34.676Z,38.90
2018-03-22T21:18:02.237Z,40.55
2018-03-22T21:20:29.817Z,42.30
2018-03-22T21:22:57.903Z,39.72
2018-03-22T21:25:25.439Z,38.72
2018-03-22T21:27:54.452Z,39.75
2018-03-22T21:30:21.959Z,39.50
2018-03-22T21:32:53.207Z,38.10
2018-03-22T21:35:21.540Z,40.15
2018-03-22T21:37:49.109Z,40.12
2018-03-22T21:40:16.621Z,39.50
2018-03-22T21:42:44.174Z,41.10
2018-03-22T21:45:11.736Z,42.15
2018-03-22T21:47:39.272Z,44.00
2018-03-22T21:50:07.617Z,44.65
2018-03-22T21:52:45.138Z,42.42
2018-03-22T21:55:13.420Z,42.70
2018-03-22T21:57:41.937Z,48.60
2018-03-22T22:00:09.440Z,42.42
2018-03-22T22:02:36.991Z,41.85
2018-03-22T22:05:04.515Z,40.10
2018-03-22T22:07:32.065Z,41.80
2018-03-22T22:09:59.557Z,40.42
2018-03-22T22:12:27.160Z,41.90
2018-03-22T22:14:55.419Z,43.63
2018-03-22T22:17:22.917Z,41.58
2018-03-22T22:19:50.446Z,40.15
2018-03-22T22:22:17.931Z,41.08
2018-03-22T22:24:45.479Z,41.10
2018-03-22T22:27:13.065Z,41.47
2018-03-22T22:29:40.668Z,42.20
2018-03-22T22:32:19.041Z,41.95
2018-03-22T22:34:46.591Z,41.33
2018-03-22T22:37:14.087Z,40.40
2018-03-22T22:39:41.725Z,38.45
2018-03-22T22:42:09.231Z,38.42
2018-03-22T22:44:36.814Z,38.45
2018-03-22T22:47:05.151Z,38.47
2018-03-22T22:49:32.689Z,40.95
2018-03-22T22:52:00.199Z,39.55
2018-03-22T22:54:28.507Z,37.72
2018-03-22T22:56:56.032Z,38.67
2018-03-22T22:59:24.378Z,37.28
2018-03-22T23:01:51.918Z,35.03
2018-03-22T23:04:20.264Z,36.53
2018-03-22T23:06:47.788Z,36.08
2018-03-22T23:09:15.381Z,38.80
2018-03-22T23:11:43.679Z,35.85
2018-03-22T23:14:11.256Z,38.10
2018-03-22T23:16:38.800Z,33.95
2018-03-22T23:19:06.293Z,36.40
2018-03-22T23:21:33.827Z,35.40
2018-03-22T23:24:01.328Z,35.58
2018-03-22T23:26:29.580Z,35.90
2018-03-22T23:28:57.156Z,33.08
2018-03-22T23:31:25.265Z,33.75
2018-03-22T23:33:52.844Z,34.35
2018-03-22T23:36:20.367Z,32.80
2018-03-22T23:38:48.746Z,33.28
2018-03-22T23:41:17.078Z,34.08
2018-03-22T23:43:44.566Z,31.67
2018-03-22T23:46:12.084Z,30.35
2018-03-22T23:48:39.762Z,29.48
2018-03-22T23:51:07.267Z,30.33
2018-03-22T23:53:34.913Z,28.12
2018-03-22T23:56:03.178Z,28.10
2018-03-22T23:58:30.713Z,27.55
